Clinton, Washington
Current Conditions -  °F | °C
As of 11:53 AM on Sunday 25 Jan 2015 (Local Time) from KPAE Reporting Station
Clear Clear  
Wind Chill: 14°   Ceiling: Unl
Heat Index: 14°   Visibility: 10mi
Dew Point:   Wind: 3mph
Humidity: 74%   Direction: 110°ESE
Pressure: 30.14"   Gusts: NA
Location:  47.98°N, 122.36°W
Report Text: KPAE 251953Z 11003KT 10SM CLR 14/09 A3014 RMK AO2 SLP206 T01390094
Loading
Personal Weather Stations






























Interactive Weather Map New forecast layout! Learn more

10-Day Weather Forecast

Advertisements
Track Severe Weather on mobile